createdAt,value
2018-04-08T09:07:07.178Z,96876.27
2018-04-08T09:09:38.198Z,96873.49
2018-04-08T09:12:09.294Z,96869.28
2018-04-08T09:14:40.354Z,96868.53
2018-04-08T09:17:11.403Z,96874.05
2018-04-08T09:23:07.600Z,96861.79
2018-04-08T09:25:38.619Z,96856.13
2018-04-08T09:28:09.633Z,96851.15
2018-04-08T09:30:40.634Z,96850.62
2018-04-08T09:33:11.653Z,96849.48
2018-04-08T09:35:42.649Z,96855.97
2018-04-08T09:38:13.600Z,96848.20
2018-04-08T09:40:44.615Z,96847.89
2018-04-08T09:43:15.581Z,96846.20
2018-04-08T09:45:46.576Z,96839.48
2018-04-08T09:48:17.525Z,96840.93
2018-04-08T09:50:48.511Z,96836.11
2018-04-08T09:53:19.501Z,96837.37
2018-04-08T09:55:50.539Z,96834.24
2018-04-08T09:58:24.458Z,96839.17
2018-04-08T10:03:54.943Z,96834.79
2018-04-08T10:06:25.925Z,96829.36
2018-04-08T10:08:56.971Z,96826.20
2018-04-08T10:11:27.994Z,96823.33
2018-04-08T10:13:59.024Z,96823.05
2018-04-08T10:16:30.042Z,96824.73
2018-04-08T10:19:01.087Z,96818.58
2018-04-08T10:21:32.056Z,96823.70
2018-04-08T10:24:03.054Z,96813.08
2018-04-08T10:26:34.061Z,96811.56
2018-04-08T10:29:05.100Z,96809.84
2018-04-08T10:31:36.067Z,96815.27
2018-04-08T10:34:07.077Z,96816.70
2018-04-08T10:36:38.057Z,96815.31
2018-04-08T10:39:09.078Z,96808.34
2018-04-08T10:41:40.097Z,96806.07
2018-04-08T10:44:11.088Z,96807.20
2018-04-08T10:46:42.102Z,96801.83
2018-04-08T10:49:13.076Z,96803.23
2018-04-08T10:51:44.167Z,96801.42
2018-04-08T10:54:15.180Z,96800.66
2018-04-08T10:56:46.185Z,96799.68
2018-04-08T10:59:17.161Z,96802.93
2018-04-08T11:01:48.186Z,96789.52
2018-04-08T11:04:19.265Z,96787.92
2018-04-08T11:06:50.290Z,96799.48
2018-04-08T11:09:21.307Z,96797.27
2018-04-08T11:11:52.291Z,96790.59
2018-04-08T11:14:23.292Z,96797.35
2018-04-08T11:16:54.370Z,96797.09
2018-04-08T11:19:25.385Z,96795.64
2018-04-08T11:21:56.372Z,96798.19
2018-04-08T11:24:27.349Z,96797.50
2018-04-08T11:26:58.386Z,96799.84
2018-04-08T11:29:29.409Z,96800.81
2018-04-08T11:32:00.418Z,96801.81
2018-04-08T11:34:31.435Z,96803.30
2018-04-08T11:37:02.446Z,96801.76
2018-04-08T11:39:33.480Z,96798.16
2018-04-08T11:42:04.468Z,96785.23
2018-04-08T11:44:35.494Z,96788.44
2018-04-08T11:47:06.496Z,96785.56
2018-04-08T11:49:37.523Z,96785.56
2018-04-08T11:52:08.546Z,96781.20
2018-04-08T11:54:39.530Z,96784.11
2018-04-08T11:57:10.543Z,96774.09
2018-04-08T11:59:41.524Z,96772.73
2018-04-08T12:02:27.435Z,96774.70
2018-04-08T12:04:58.426Z,96762.67
2018-04-08T12:07:29.401Z,96760.44
2018-04-08T12:10:00.444Z,96758.19
2018-04-08T12:12:31.457Z,96747.67
2018-04-08T12:15:02.546Z,96747.95
2018-04-08T12:17:33.556Z,96743.81
2018-04-08T12:20:04.599Z,96743.01
2018-04-08T12:22:35.565Z,96733.25
2018-04-08T12:25:06.548Z,96736.63
2018-04-08T12:27:37.532Z,96747.05
2018-04-08T12:30:08.562Z,96749.13
2018-04-08T12:32:39.567Z,96743.91
2018-04-08T12:35:10.573Z,96746.89
2018-04-08T12:37:41.541Z,96742.97
2018-04-08T12:40:12.491Z,96736.73
2018-04-08T12:42:43.507Z,96734.87
2018-04-08T12:45:14.482Z,96727.73
2018-04-08T12:47:45.460Z,96722.59
2018-04-08T12:50:16.466Z,96719.45
2018-04-08T12:52:47.473Z,96720.03
2018-04-08T12:55:18.445Z,96718.66
2018-04-08T12:57:49.407Z,96714.48
2018-04-08T13:00:20.402Z,96716.83
2018-04-08T13:02:51.419Z,96708.63
2018-04-08T13:05:22.382Z,96706.42
2018-04-08T13:07:53.377Z,96706.44
2018-04-08T13:10:24.326Z,96704.78
2018-04-08T13:12:55.366Z,96695.38
2018-04-08T13:15:26.414Z,96692.48
2018-04-08T13:17:57.428Z,96689.52
2018-04-08T13:20:28.447Z,96688.09
2018-04-08T13:22:59.407Z,96682.83
2018-04-08T13:25:30.421Z,96674.78
2018-04-08T13:28:01.373Z,96667.36
2018-04-08T13:30:32.368Z,96674.52
2018-04-08T13:33:03.346Z,96661.23
2018-04-08T13:35:34.326Z,96662.95
2018-04-08T13:38:05.322Z,96669.97
2018-04-08T13:40:36.320Z,96667.61
2018-04-08T13:43:07.354Z,96662.87
2018-04-08T13:45:38.356Z,96663.25
2018-04-08T13:48:09.347Z,96657.20
2018-04-08T13:50:40.320Z,96660.55
2018-04-08T13:53:11.321Z,96655.87
2018-04-08T13:55:42.337Z,96647.87
2018-04-08T13:58:13.357Z,96650.93
2018-04-08T14:00:44.417Z,96655.28
2018-04-08T14:03:15.435Z,96653.94
2018-04-08T14:05:46.425Z,96651.54
2018-04-08T14:08:17.476Z,96644.89
2018-04-08T14:10:48.451Z,96636.16
2018-04-08T14:13:19.397Z,96638.59
2018-04-08T14:15:50.379Z,96628.83
2018-04-08T14:18:21.382Z,96626.76
2018-04-08T14:20:52.365Z,96633.73
2018-04-08T14:23:23.378Z,96635.00
2018-04-08T14:25:54.416Z,96636.09
2018-04-08T14:28:25.401Z,96633.89
2018-04-08T14:30:56.425Z,96632.02
2018-04-08T14:33:27.441Z,96631.64
2018-04-08T14:35:58.417Z,96627.08
2018-04-08T14:38:29.404Z,96626.13
2018-04-08T14:41:00.393Z,96620.67
2018-04-08T14:43:31.420Z,96627.20
2018-04-08T14:46:02.437Z,96626.99
2018-04-08T14:48:33.430Z,96624.29
2018-04-08T14:51:04.467Z,96619.64
2018-04-08T14:53:35.444Z,96619.23
2018-04-08T14:56:06.400Z,96618.02
2018-04-08T14:58:37.420Z,96611.80
2018-04-08T15:01:08.418Z,96614.50
2018-04-08T15:03:39.439Z,96609.92
2018-04-08T15:06:10.461Z,96609.55
2018-04-08T15:08:41.502Z,96607.14
2018-04-08T15:11:12.517Z,96599.17
2018-04-08T15:13:43.516Z,96591.45
2018-04-08T15:16:14.565Z,96591.78
2018-04-08T15:18:45.553Z,96590.92
2018-04-08T15:21:16.510Z,96583.03
2018-04-08T15:23:47.549Z,96586.91
2018-04-08T15:26:18.502Z,96586.02
2018-04-08T15:28:49.498Z,96582.52
2018-04-08T15:31:20.481Z,96582.81
2018-04-08T15:33:51.471Z,96575.19
2018-04-08T15:36:22.429Z,96577.84
2018-04-08T15:38:53.421Z,96572.19
2018-04-08T15:41:24.463Z,96579.42
2018-04-08T15:43:55.447Z,96578.02
2018-04-08T15:46:26.541Z,96578.63
2018-04-08T15:48:57.563Z,96583.20
2018-04-08T15:51:28.679Z,96580.00
2018-04-08T15:53:59.639Z,96581.15
2018-04-08T15:56:30.661Z,96581.25
2018-04-08T15:59:01.648Z,96581.42
2018-04-08T16:01:32.682Z,96585.11
2018-04-08T16:04:03.695Z,96586.84
2018-04-08T16:06:34.697Z,96591.92
2018-04-08T16:09:05.723Z,96588.85
2018-04-08T16:11:36.705Z,96588.38
2018-04-08T16:14:07.705Z,96583.63
2018-04-08T16:16:38.747Z,96591.73
2018-04-08T16:19:09.731Z,96591.92
2018-04-08T16:21:40.717Z,96586.97
2018-04-08T16:24:11.706Z,96590.52
2018-04-08T16:26:42.717Z,96589.05
2018-04-08T16:29:13.725Z,96585.24
2018-04-08T16:31:44.702Z,96595.68
2018-04-08T16:34:15.701Z,96598.95
2018-04-08T16:36:46.764Z,96598.62
2018-04-08T16:39:17.785Z,96596.83
2018-04-08T16:41:48.795Z,96595.86
2018-04-08T16:44:19.752Z,96591.06
2018-04-08T16:46:50.774Z,96587.54
2018-04-08T16:49:21.753Z,96585.87
2018-04-08T16:51:52.735Z,96584.57
2018-04-08T16:54:23.729Z,96587.39
2018-04-08T16:56:54.712Z,96580.05
2018-04-08T16:59:25.723Z,96585.17
2018-04-08T17:01:56.719Z,96582.72
2018-04-08T17:04:27.713Z,96580.91
2018-04-08T17:06:58.708Z,96579.72
2018-04-08T17:09:29.735Z,96580.81
2018-04-08T17:12:00.689Z,96580.20
2018-04-08T17:14:31.695Z,96578.64
2018-04-08T17:17:02.713Z,96584.09
2018-04-08T17:19:33.735Z,96587.51
2018-04-08T17:22:04.731Z,96585.69
2018-04-08T17:24:35.733Z,96584.10
2018-04-08T17:27:06.761Z,96589.41
2018-04-08T17:29:37.697Z,96589.19
2018-04-08T17:32:08.734Z,96594.80
2018-04-08T17:34:39.732Z,96593.67
2018-04-08T17:37:10.779Z,96593.11
2018-04-08T17:39:41.782Z,96596.68
2018-04-08T17:42:12.798Z,96593.97
2018-04-08T17:44:43.817Z,96598.03
2018-04-08T17:47:14.842Z,96600.22
2018-04-08T17:49:45.948Z,96598.39
2018-04-08T17:52:16.962Z,96600.33
2018-04-08T17:54:48.223Z,96604.66
2018-04-08T17:57:19.191Z,96607.44
2018-04-08T17:59:50.192Z,96609.09
2018-04-08T18:02:21.197Z,96611.61
2018-04-08T18:04:52.231Z,96612.40
2018-04-08T18:07:23.220Z,96613.19
2018-04-08T18:09:54.231Z,96622.75
2018-04-08T18:12:25.239Z,96628.18
2018-04-08T18:14:56.237Z,96628.77
2018-04-08T18:17:27.247Z,96632.89
2018-04-08T18:19:58.311Z,96634.48
2018-04-08T18:22:29.299Z,96634.77
2018-04-08T18:25:00.267Z,96642.28
2018-04-08T18:27:31.277Z,96642.73
2018-04-08T18:30:02.314Z,96647.42
2018-04-08T18:32:33.305Z,96656.26
2018-04-08T18:35:04.305Z,96656.66
2018-04-08T18:37:35.367Z,96653.42
2018-04-08T18:40:06.392Z,96655.59
2018-04-08T18:42:37.385Z,96658.80
2018-04-08T18:45:08.401Z,96662.30
2018-04-08T18:47:39.419Z,96656.88
2018-04-08T18:50:10.427Z,96668.20
2018-04-08T18:52:41.415Z,96665.59
2018-04-08T18:55:12.397Z,96665.47
2018-04-08T18:57:43.454Z,96666.75
2018-04-08T19:00:14.484Z,96662.36
2018-04-08T19:02:45.446Z,96666.44
2018-04-08T19:05:16.460Z,96663.83
2018-04-08T19:07:47.459Z,96661.95
2018-04-08T19:10:18.443Z,96667.72
2018-04-08T19:12:49.486Z,96670.52
2018-04-08T19:15:20.521Z,96672.14
2018-04-08T19:17:57.705Z,96669.03
2018-04-08T19:20:28.779Z,96670.95
2018-04-08T19:22:59.834Z,96669.53
2018-04-08T19:25:30.814Z,96672.38
2018-04-08T19:28:01.809Z,96672.98
2018-04-08T19:30:32.877Z,96671.90
2018-04-08T19:33:03.927Z,96675.12
2018-04-08T19:35:34.928Z,96675.03
2018-04-08T19:38:06.035Z,96676.39
2018-04-08T19:40:37.041Z,96675.60
2018-04-08T19:43:11.019Z,96670.00
2018-04-08T19:45:42.021Z,96664.56
2018-04-08T19:48:13.051Z,96669.44
2018-04-08T19:50:44.102Z,96664.10
2018-04-08T19:53:15.068Z,96671.27
2018-04-08T19:55:46.078Z,96670.64
2018-04-08T19:58:17.064Z,96670.95
2018-04-08T20:00:48.064Z,96670.66
2018-04-08T20:03:19.086Z,96669.63
2018-04-08T20:05:50.354Z,96665.08
2018-04-08T20:08:21.349Z,96668.00
2018-04-08T20:10:52.333Z,96666.22
2018-04-08T20:13:23.330Z,96661.91
2018-04-08T20:15:54.291Z,96662.86
2018-04-08T20:18:25.285Z,96658.94
2018-04-08T20:20:56.316Z,96662.78
2018-04-08T20:23:27.329Z,96667.27
2018-04-08T20:25:58.291Z,96669.28
2018-04-08T20:28:29.314Z,96673.77
2018-04-08T20:31:00.330Z,96658.88
2018-04-08T20:33:31.304Z,96669.25
2018-04-08T20:36:02.305Z,96666.16
2018-04-08T20:38:33.270Z,96662.87
2018-04-08T20:41:04.268Z,96657.18
2018-04-08T20:43:35.244Z,96647.26
2018-04-08T20:46:06.286Z,96647.77
2018-04-08T20:48:37.316Z,96644.72
2018-04-08T20:51:08.291Z,96650.20
2018-04-08T20:53:39.300Z,96656.29
2018-04-08T20:56:10.310Z,96655.71
2018-04-08T20:58:41.345Z,96658.50
2018-04-08T21:01:12.349Z,96657.14
2018-04-08T21:03:43.343Z,96654.95
2018-04-08T21:06:14.331Z,96654.27
2018-04-08T21:08:45.324Z,96651.19
2018-04-08T21:11:16.307Z,96650.33
2018-04-08T21:13:47.309Z,96649.72
2018-04-08T21:16:18.293Z,96654.30
2018-04-08T21:18:49.307Z,96655.94
2018-04-08T21:21:20.313Z,96650.88
2018-04-08T21:23:51.318Z,96653.03
2018-04-08T21:26:22.329Z,96650.72
2018-04-08T21:28:53.359Z,96652.94
2018-04-08T21:31:24.327Z,96651.05
2018-04-08T21:33:55.335Z,96640.92
2018-04-08T21:36:26.401Z,96641.69
2018-04-08T21:38:57.371Z,96645.47
2018-04-08T21:41:28.340Z,96652.77
2018-04-08T21:43:59.376Z,96655.48
2018-04-08T21:46:30.378Z,96653.65
2018-04-08T21:49:01.389Z,96661.88
2018-04-08T21:51:32.437Z,96666.80
2018-04-08T21:54:03.489Z,96666.10
2018-04-08T21:56:34.445Z,96665.28
2018-04-08T21:59:05.433Z,96653.97
2018-04-08T22:01:36.423Z,96661.98
2018-04-08T22:04:07.416Z,96661.73
2018-04-08T22:06:38.392Z,96657.77
2018-04-08T22:09:09.380Z,96659.91
2018-04-08T22:11:40.384Z,96661.28
2018-04-08T22:14:11.355Z,96663.28
2018-04-08T22:16:42.314Z,96665.02
2018-04-08T22:19:13.265Z,96659.53
2018-04-08T22:21:44.224Z,96666.59
2018-04-08T22:24:15.179Z,96657.64
2018-04-08T22:26:46.213Z,96655.00
2018-04-08T22:29:17.228Z,96650.91
2018-04-08T22:31:48.232Z,96650.86
2018-04-08T22:34:19.267Z,96652.31
2018-04-08T22:36:50.262Z,96648.89
2018-04-08T22:39:21.284Z,96648.27
2018-04-08T22:41:52.272Z,96642.34
2018-04-08T22:44:23.269Z,96642.91
2018-04-08T22:46:54.270Z,96647.71
2018-04-08T22:49:25.306Z,96644.77
2018-04-08T22:51:56.284Z,96643.73
2018-04-08T22:54:27.267Z,96646.70
2018-04-08T22:56:58.280Z,96639.13
2018-04-08T22:59:29.279Z,96639.93
2018-04-08T23:02:00.297Z,96641.59
2018-04-08T23:04:31.284Z,96641.74
2018-04-08T23:07:02.305Z,96645.59
2018-04-08T23:09:33.319Z,96643.67
2018-04-08T23:12:04.355Z,96641.02
2018-04-08T23:14:35.349Z,96634.83
2018-04-08T23:17:06.293Z,96628.02
2018-04-08T23:19:37.358Z,96628.88
2018-04-08T23:22:08.323Z,96627.45
2018-04-08T23:24:39.312Z,96626.19
2018-04-08T23:27:10.297Z,96616.81
2018-04-08T23:29:41.324Z,96615.91
2018-04-08T23:32:12.292Z,96609.77
2018-04-08T23:34:43.285Z,96611.81
2018-04-08T23:37:14.267Z,96607.86
2018-04-08T23:39:45.236Z,96612.38
2018-04-08T23:42:16.225Z,96607.48
2018-04-08T23:44:47.204Z,96621.00
2018-04-08T23:47:18.223Z,96620.11
2018-04-08T23:49:49.196Z,96622.67
2018-04-08T23:52:20.195Z,96625.86
2018-04-08T23:54:51.165Z,96625.25
2018-04-08T23:57:22.165Z,96616.53
2018-04-08T23:59:53.177Z,96621.83
